首页
METAR-TAF:

METAR-TAF

机场 :

黑堡, 弗吉尼亚州, 美国

纬度: 37-13N, 经度: 080-25W, 海拔: 650米

当前天气观测

该预报发布于31分钟前的10:15 UTC
风速8节,风向西转西北,有时为21节阵风,在西北转西北之间变化
温度 4°C
湿度 70%
气压 1020 hPa
能見度: 16.1公里
阴天层高于3000英尺

METAR: KBCB 211015Z AUTO 30008G21KT 260V340 10SM OVC030 04/M01 A3011 RMK AO2 T00351015

时间: 06:46 (10:46 UTC)

预报

该预报发布于5小时和22分钟前的05:24 UTC
预报有效从21日的 06点(UTC)到 22日的 06点(UTC)
风速20节,风向西转西北,有时为35节阵风
能見度: 10公里
多云层高于5000英尺
附近有阵雨
从 21日的 0700点(UTC)
风速16节,风向西转西北,有时为30节阵风
能見度: 10公里
散云层高于4500英尺
从 21日的 1100点(UTC)
风速12节,风向西北,有时为20节阵风
能見度: 10公里
散云层高于25000英尺
从 21日的 2300点(UTC)
风速6节,风向西转西北
能見度: 10公里
天空无云

TAF: KBCB 210524Z 2106/2206 30020G35KT P6SM VCSH BKN050 FM210700 30016G30KT P6SM SCT045 FM211100 31012G20KT P6SM SCT250 FM212300 30006KT P6SM SKC

超过4000个机场的气象观测和天气预报(METAR&TAF报告)。

可查询的气象台以黄色和红色小点在地图上表示。

将鼠标移到小点上方,可查看气象台名称。

然后点击查看天气观测和预报。

如需切换地图:点击带黑十字的绿色按钮放大地图;点击带横线的绿色按钮缩小地图;或者点击绿色箭头查看邻近地区的地图。


METAR-TAF: